createdAt,value
2022-11-13T00:01:41.557Z,101811.19
2022-11-13T00:04:27.518Z,101805.63
2022-11-13T00:07:13.350Z,101817.25
2022-11-13T00:09:59.450Z,101813.09
2022-11-13T00:12:45.004Z,101809.34
2022-11-13T00:15:30.940Z,101801.84
2022-11-13T00:18:16.648Z,101804.66
2022-11-13T00:21:13.072Z,101810.06
2022-11-13T00:23:59.396Z,101805.53
2022-11-13T00:26:45.584Z,101813.28
2022-11-13T00:29:31.745Z,101799.78
2022-11-13T00:32:17.987Z,101807.38
2022-11-13T00:35:04.829Z,101804.41
2022-11-13T00:37:50.771Z,101812.97
2022-11-13T00:40:36.494Z,101804.38
2022-11-13T00:43:22.583Z,101808.06
2022-11-13T00:46:09.046Z,101809.34
2022-11-13T00:48:55.183Z,101806.78
2022-11-13T00:51:41.016Z,101802.75
2022-11-13T00:54:27.207Z,101793.06
2022-11-13T00:57:13.045Z,101793.31
2022-11-13T00:59:59.260Z,101798.91
2022-11-13T01:02:44.988Z,101795.22
2022-11-13T01:05:31.587Z,101794.97
2022-11-13T01:08:17.344Z,101799.88
2022-11-13T01:11:12.226Z,101789.38
2022-11-13T01:13:58.424Z,101784.44
2022-11-13T01:16:44.280Z,101793.44
2022-11-13T01:19:29.930Z,101791.94
2022-11-13T01:22:15.987Z,101780.44
2022-11-13T01:25:01.834Z,101772.84
2022-11-13T01:27:47.822Z,101776.03
2022-11-13T01:30:33.967Z,101783.09
2022-11-13T01:33:20.050Z,101776.59
2022-11-13T01:36:12.631Z,101782.09
2022-11-13T01:38:59.163Z,101782.22
2022-11-13T01:41:44.699Z,101774.91
2022-11-13T01:44:56.497Z,101778.59
2022-11-13T01:47:42.159Z,101777.00
2022-11-13T01:50:28.710Z,101770.97
2022-11-13T01:53:14.688Z,101768.03
2022-11-13T01:56:00.425Z,101766.28
2022-11-13T01:58:53.577Z,101775.00
2022-11-13T02:01:39.620Z,101764.63
2022-11-13T02:04:26.638Z,101775.81
2022-11-13T02:07:19.392Z,101760.97
2022-11-13T02:10:06.358Z,101763.88
2022-11-13T02:12:52.703Z,101768.66
2022-11-13T02:15:40.088Z,101757.50
2022-11-13T02:18:30.054Z,101756.59
2022-11-13T02:21:50.727Z,101760.06
2022-11-13T02:24:44.637Z,101765.59
2022-11-13T02:27:46.551Z,101758.28
2022-11-13T02:30:35.278Z,101753.84
2022-11-13T02:33:30.403Z,101755.69
2022-11-13T02:36:18.145Z,101756.13
2022-11-13T02:39:08.899Z,101756.13
2022-11-13T02:41:54.982Z,101755.78
2022-11-13T02:44:40.961Z,101763.72
2022-11-13T02:47:27.435Z,101755.44
2022-11-13T02:50:13.865Z,101754.16
2022-11-13T02:53:00.224Z,101742.53
2022-11-13T02:55:45.778Z,101756.75
2022-11-13T02:58:32.430Z,101761.78
2022-11-13T03:01:18.162Z,101757.88
2022-11-13T03:04:04.309Z,101755.50
2022-11-13T03:06:50.196Z,101761.16
2022-11-13T03:09:36.142Z,101751.81
2022-11-13T03:12:21.957Z,101763.25
2022-11-13T03:15:09.485Z,101758.56
2022-11-13T03:17:54.799Z,101753.56
2022-11-13T03:20:43.377Z,101769.34
2022-11-13T03:23:29.271Z,101768.47
2022-11-13T03:26:17.517Z,101768.00
2022-11-13T03:29:03.585Z,101770.91
2022-11-13T03:31:49.415Z,101754.22
2022-11-13T03:34:35.228Z,101757.22
2022-11-13T03:37:21.448Z,101768.63
2022-11-13T03:40:07.948Z,101762.59
2022-11-13T03:42:53.732Z,101757.94
2022-11-13T03:45:39.857Z,101753.69
2022-11-13T03:48:25.952Z,101760.69
2022-11-13T03:51:11.892Z,101762.63
2022-11-13T03:53:57.960Z,101754.84
2022-11-13T03:56:43.400Z,101756.06
2022-11-13T03:59:29.645Z,101756.69
2022-11-13T04:02:15.092Z,101761.81
2022-11-13T04:05:01.164Z,101762.31
2022-11-13T04:07:47.052Z,101756.41
2022-11-13T04:10:33.039Z,101759.72
2022-11-13T04:13:18.862Z,101762.94
2022-11-13T04:16:05.615Z,101756.88
2022-11-13T04:18:51.554Z,101767.28
2022-11-13T04:21:37.745Z,101767.84
2022-11-13T04:24:23.486Z,101766.56
2022-11-13T04:27:09.427Z,101769.56
2022-11-13T04:29:55.106Z,101765.50
2022-11-13T04:32:41.102Z,101759.38
2022-11-13T04:35:26.701Z,101766.47
2022-11-13T04:38:13.203Z,101774.34
2022-11-13T04:41:33.921Z,101773.09
2022-11-13T04:44:19.617Z,101773.94
2022-11-13T04:47:05.585Z,101766.31
2022-11-13T04:49:51.480Z,101771.59
2022-11-13T04:52:37.845Z,101768.38
2022-11-13T04:55:23.937Z,101769.03
2022-11-13T04:58:09.550Z,101777.94
2022-11-13T05:00:55.680Z,101777.22
2022-11-13T05:03:41.326Z,101770.63
2022-11-13T05:06:27.424Z,101770.16
2022-11-13T05:09:13.351Z,101777.22
2022-11-13T05:11:59.352Z,101782.06
2022-11-13T05:14:45.318Z,101782.38
2022-11-13T05:17:31.374Z,101783.63
2022-11-13T05:20:17.563Z,101775.31
2022-11-13T05:23:04.541Z,101778.47
2022-11-13T05:25:50.319Z,101774.94
2022-11-13T05:28:37.370Z,101782.22
2022-11-13T05:31:23.681Z,101781.50
2022-11-13T05:34:10.227Z,101780.06
2022-11-13T05:36:56.258Z,101780.97
2022-11-13T05:39:42.379Z,101781.22
2022-11-13T05:42:28.068Z,101780.50
2022-11-13T05:45:14.164Z,101782.56
2022-11-13T05:47:59.455Z,101789.41
2022-11-13T05:50:45.373Z,101784.41
2022-11-13T05:53:31.617Z,101778.28
2022-11-13T05:56:23.423Z,101778.88
2022-11-13T05:59:09.132Z,101784.00
2022-11-13T06:01:55.323Z,101777.84
2022-11-13T06:04:41.166Z,101790.16
2022-11-13T06:07:27.148Z,101784.50
2022-11-13T06:10:13.327Z,101792.47
2022-11-13T06:12:59.600Z,101787.28
2022-11-13T06:15:45.359Z,101785.56
2022-11-13T06:18:32.588Z,101791.25
2022-11-13T06:21:21.425Z,101793.09
2022-11-13T06:24:10.742Z,101786.28
2022-11-13T06:26:56.428Z,101794.50
2022-11-13T06:29:42.404Z,101797.88
2022-11-13T06:32:27.978Z,101806.56
2022-11-13T06:35:14.145Z,101805.75
2022-11-13T06:37:59.674Z,101795.56
2022-11-13T06:40:45.703Z,101805.28
2022-11-13T06:43:32.100Z,101811.16
2022-11-13T06:46:20.737Z,101815.28
2022-11-13T06:49:06.363Z,101812.69
2022-11-13T06:51:52.702Z,101821.41
2022-11-13T06:54:38.508Z,101811.09
2022-11-13T06:57:24.551Z,101822.63
2022-11-13T07:00:11.406Z,101818.72
2022-11-13T07:02:57.400Z,101817.59
2022-11-13T07:05:43.468Z,101821.19
2022-11-13T07:08:30.012Z,101813.94
2022-11-13T07:11:18.933Z,101815.91
2022-11-13T07:14:04.568Z,101821.28
2022-11-13T07:17:08.751Z,101808.41
2022-11-13T07:19:55.801Z,101816.25
2022-11-13T07:22:41.204Z,101822.88
2022-11-13T07:25:28.279Z,101822.88
2022-11-13T07:28:13.906Z,101823.41
2022-11-13T07:31:00.849Z,101821.44
2022-11-13T07:33:48.847Z,101819.50
2022-11-13T07:36:34.960Z,101807.97
2022-11-13T07:39:20.412Z,101823.44
2022-11-13T07:42:06.541Z,101815.78
2022-11-13T07:44:54.936Z,101807.34
2022-11-13T07:47:41.673Z,101815.34
2022-11-13T07:50:33.475Z,101815.03
2022-11-13T07:53:20.585Z,101814.63
2022-11-13T07:56:06.714Z,101813.69
2022-11-13T07:58:52.430Z,101808.19
2022-11-13T08:01:38.523Z,101817.75
2022-11-13T08:04:24.567Z,101829.81
2022-11-13T08:07:12.957Z,101816.19
2022-11-13T08:09:58.966Z,101819.88
2022-11-13T08:12:46.133Z,101824.66
2022-11-13T08:15:32.952Z,101817.94
2022-11-13T08:18:18.319Z,101820.97
2022-11-13T08:21:09.283Z,101835.84
2022-11-13T08:23:55.958Z,101826.63
2022-11-13T08:26:42.280Z,101831.50
2022-11-13T08:29:27.870Z,101828.81
2022-11-13T08:32:18.169Z,101830.03
2022-11-13T08:35:03.813Z,101833.34
2022-11-13T08:37:49.909Z,101830.38
2022-11-13T08:40:36.112Z,101830.00
2022-11-13T08:43:22.263Z,101845.16
2022-11-13T08:46:08.244Z,101833.44
2022-11-13T08:48:54.227Z,101825.94
2022-11-13T08:51:40.092Z,101823.59
2022-11-13T08:54:26.165Z,101831.69
2022-11-13T08:57:12.127Z,101832.47
2022-11-13T08:59:58.205Z,101831.41
2022-11-13T09:02:44.311Z,101818.78
2022-11-13T09:05:30.299Z,101825.53
2022-11-13T09:08:15.820Z,101827.34
2022-11-13T09:11:05.900Z,101833.22
2022-11-13T09:13:53.534Z,101832.72
2022-11-13T09:16:40.209Z,101819.19
2022-11-13T09:19:26.069Z,101826.53
2022-11-13T09:22:12.337Z,101833.91
2022-11-13T09:24:58.913Z,101831.69
2022-11-13T09:27:52.616Z,101831.81
2022-11-13T09:30:40.049Z,101828.63
2022-11-13T09:33:26.021Z,101819.97
2022-11-13T09:36:14.344Z,101837.97
2022-11-13T09:39:01.037Z,101830.72
2022-11-13T09:42:09.900Z,101824.06
2022-11-13T09:45:13.593Z,101837.09
2022-11-13T09:48:28.630Z,101821.41
2022-11-13T09:51:34.922Z,101819.63
2022-11-13T09:54:20.872Z,101812.00
2022-11-13T09:57:16.057Z,101827.59
2022-11-13T10:00:04.754Z,101825.06
2022-11-13T10:03:17.662Z,101825.53
2022-11-13T10:06:35.012Z,101807.94
2022-11-13T10:09:42.014Z,101820.72
2022-11-13T10:12:31.531Z,101814.72
2022-11-13T10:15:18.161Z,101805.53
2022-11-13T10:18:14.268Z,101801.38
2022-11-13T10:21:24.848Z,101803.69
2022-11-13T10:24:25.294Z,101796.78
2022-11-13T10:27:12.858Z,101795.75
2022-11-13T10:29:58.589Z,101804.31
2022-11-13T10:32:45.558Z,101795.06
2022-11-13T10:35:49.495Z,101800.84
2022-11-13T10:38:44.448Z,101788.00
2022-11-13T10:41:30.343Z,101787.00
2022-11-13T10:44:23.402Z,101782.19
2022-11-13T10:47:26.441Z,101779.06
2022-11-13T10:50:20.768Z,101783.84
2022-11-13T10:53:16.636Z,101778.63
2022-11-13T10:56:13.230Z,101784.47
2022-11-13T10:59:17.159Z,101776.38
2022-11-13T11:02:29.828Z,101768.44
2022-11-13T11:05:21.135Z,101773.94
2022-11-13T11:08:10.946Z,101774.38
2022-11-13T11:11:21.057Z,101768.44
2022-11-13T11:14:30.758Z,101762.94
2022-11-13T11:17:18.658Z,101766.22
2022-11-13T11:20:25.758Z,101770.75
2022-11-13T11:23:35.810Z,101769.38
2022-11-13T11:26:24.095Z,101762.75
2022-11-13T11:29:43.792Z,101764.28
2022-11-13T11:32:36.628Z,101767.97
2022-11-13T11:35:27.724Z,101771.16
2022-11-13T11:38:41.947Z,101765.50
2022-11-13T11:41:38.844Z,101761.13
2022-11-13T11:44:44.527Z,101752.03
2022-11-13T11:47:30.817Z,101754.22
2022-11-13T11:50:28.423Z,101758.41
2022-11-13T11:53:23.212Z,101749.06
2022-11-13T11:56:17.312Z,101757.66
2022-11-13T11:59:33.902Z,101759.88
2022-11-13T12:02:47.297Z,101759.38
2022-11-13T12:05:53.667Z,101751.16
2022-11-13T12:09:12.327Z,101763.31
2022-11-13T12:12:06.910Z,101757.56
2022-11-13T12:14:52.613Z,101758.34
2022-11-13T12:18:05.158Z,101755.91
2022-11-13T12:20:59.878Z,101761.22
2022-11-13T12:24:03.627Z,101759.34
2022-11-13T12:26:58.990Z,101765.38
2022-11-13T12:30:10.722Z,101770.31
2022-11-13T12:33:15.162Z,101764.91
2022-11-13T12:36:03.158Z,101756.56
2022-11-13T12:38:57.192Z,101761.84
2022-11-13T12:41:59.670Z,101751.03
2022-11-13T12:45:16.889Z,101742.44
2022-11-13T12:48:40.735Z,101749.31
2022-11-13T12:51:39.687Z,101731.91
2022-11-13T12:54:36.257Z,101739.00
2022-11-13T12:57:30.067Z,101738.00
2022-11-13T13:00:31.078Z,101723.03
2022-11-13T13:03:35.821Z,101733.84
2022-11-13T13:06:34.829Z,101725.53
2022-11-13T13:09:30.320Z,101722.56
2022-11-13T13:12:34.481Z,101728.19
2022-11-13T13:15:29.877Z,101729.97
2022-11-13T13:18:18.553Z,101720.34
2022-11-13T13:21:11.578Z,101722.09
2022-11-13T13:24:07.595Z,101709.97
2022-11-13T13:26:53.972Z,101705.19
2022-11-13T13:29:41.041Z,101704.78
2022-11-13T13:32:52.436Z,101682.84
2022-11-13T13:35:42.685Z,101678.69
2022-11-13T13:38:52.415Z,101671.63
2022-11-13T13:41:51.249Z,101661.75
2022-11-13T13:44:53.310Z,101669.72
2022-11-13T13:47:47.405Z,101657.09
2022-11-13T13:50:39.275Z,101647.56
2022-11-13T13:53:29.790Z,101662.50
2022-11-13T13:56:16.921Z,101660.53
2022-11-13T13:59:02.663Z,101655.38
2022-11-13T14:02:00.920Z,101656.06
2022-11-13T14:04:48.902Z,101641.81
2022-11-13T14:07:35.887Z,101630.69
2022-11-13T14:10:24.649Z,101644.28
2022-11-13T14:13:13.727Z,101636.94
2022-11-13T14:16:05.149Z,101628.22
2022-11-13T14:18:51.121Z,101634.81
2022-11-13T14:21:37.144Z,101644.13
2022-11-13T14:24:30.360Z,101642.16
2022-11-13T14:27:20.762Z,101645.34
2022-11-13T14:30:23.021Z,101637.44
2022-11-13T14:33:11.113Z,101644.19
2022-11-13T14:35:58.735Z,101643.97
2022-11-13T14:38:51.976Z,101644.13
2022-11-13T14:41:50.172Z,101635.34
2022-11-13T14:44:36.025Z,101648.16
2022-11-13T14:47:28.617Z,101650.63
2022-11-13T14:50:27.388Z,101651.75
2022-11-13T14:53:13.373Z,101654.44
2022-11-13T14:56:02.255Z,101650.78
2022-11-13T14:58:48.585Z,101653.72
2022-11-13T15:01:34.813Z,101657.66
2022-11-13T15:04:20.984Z,101654.66
2022-11-13T15:07:29.149Z,101664.66
2022-11-13T15:10:18.923Z,101667.94
2022-11-13T15:13:16.190Z,101656.63
2022-11-13T15:16:02.130Z,101662.28
2022-11-13T15:19:09.793Z,101658.00
2022-11-13T15:22:25.118Z,101666.06
2022-11-13T15:25:02.410Z,101661.25
2022-11-13T15:27:49.074Z,101669.06
2022-11-13T15:30:35.363Z,101653.28
2022-11-13T15:33:21.712Z,101666.03
2022-11-13T15:36:09.296Z,101658.75
2022-11-13T15:38:56.679Z,101674.84
2022-11-13T15:41:42.767Z,101670.31
2022-11-13T15:44:28.850Z,101660.66
2022-11-13T15:47:30.700Z,101672.41
2022-11-13T15:50:16.876Z,101673.78
2022-11-13T15:53:05.396Z,101665.94
2022-11-13T15:55:51.647Z,101664.69
2022-11-13T15:58:37.699Z,101668.94
2022-11-13T16:01:24.004Z,101662.13
2022-11-13T16:04:12.039Z,101665.81
2022-11-13T16:06:58.046Z,101672.78
2022-11-13T16:09:45.016Z,101665.50
2022-11-13T16:12:31.200Z,101672.22
2022-11-13T16:15:17.664Z,101669.00
2022-11-13T16:18:03.969Z,101695.22
2022-11-13T16:20:49.820Z,101684.88
2022-11-13T16:23:35.808Z,101687.31
2022-11-13T16:26:24.661Z,101682.28
2022-11-13T16:29:23.013Z,101682.28
2022-11-13T16:32:15.883Z,101675.31
2022-11-13T16:35:01.972Z,101681.47
2022-11-13T16:37:47.578Z,101681.66
2022-11-13T16:40:34.010Z,101689.66
2022-11-13T16:43:19.834Z,101692.78
2022-11-13T16:46:18.010Z,101687.66
2022-11-13T16:49:03.958Z,101685.22
2022-11-13T16:51:51.709Z,101686.84
2022-11-13T16:54:37.403Z,101697.25
2022-11-13T16:57:23.348Z,101686.25
2022-11-13T17:00:14.170Z,101668.50
2022-11-13T17:03:00.325Z,101679.69
2022-11-13T17:05:45.785Z,101686.66
2022-11-13T17:08:31.973Z,101676.19
2022-11-13T17:11:17.989Z,101680.25
2022-11-13T17:14:04.717Z,101679.09
2022-11-13T17:16:50.462Z,101670.41
2022-11-13T17:19:40.899Z,101675.56
2022-11-13T17:22:26.616Z,101670.72
2022-11-13T17:25:12.661Z,101675.47
2022-11-13T17:27:58.458Z,101662.97
2022-11-13T17:30:44.454Z,101669.91
2022-11-13T17:33:31.573Z,101672.19
2022-11-13T17:36:17.980Z,101668.00
2022-11-13T17:39:04.274Z,101666.69
2022-11-13T17:41:50.699Z,101669.72
2022-11-13T17:44:36.213Z,101648.53
2022-11-13T17:47:22.487Z,101664.13
2022-11-13T17:50:08.278Z,101662.91
2022-11-13T17:52:54.044Z,101666.97
2022-11-13T17:55:39.787Z,101659.66
2022-11-13T17:58:27.012Z,101657.84
2022-11-13T18:01:15.778Z,101657.63
2022-11-13T18:04:01.657Z,101667.66
2022-11-13T18:06:47.698Z,101655.06
2022-11-13T18:09:35.248Z,101651.25
2022-11-13T18:12:21.072Z,101666.97
2022-11-13T18:15:07.501Z,101665.03
2022-11-13T18:17:52.955Z,101668.97
2022-11-13T18:20:40.468Z,101654.75
2022-11-13T18:23:26.583Z,101666.34
2022-11-13T18:26:18.549Z,101677.16
2022-11-13T18:29:04.933Z,101678.94
2022-11-13T18:31:51.111Z,101663.75
2022-11-13T18:34:36.578Z,101647.66
2022-11-13T18:37:22.598Z,101663.44
2022-11-13T18:40:09.057Z,101649.34
2022-11-13T18:43:01.585Z,101653.00
2022-11-13T18:46:04.886Z,101666.56
2022-11-13T18:48:50.815Z,101662.22
2022-11-13T18:51:36.679Z,101658.53
2022-11-13T18:54:22.538Z,101647.94
2022-11-13T18:57:08.658Z,101655.69
2022-11-13T19:00:00.464Z,101652.19
2022-11-13T19:02:52.900Z,101645.75
2022-11-13T19:05:43.185Z,101650.81
2022-11-13T19:08:29.035Z,101646.41
2022-11-13T19:11:17.620Z,101654.78
2022-11-13T19:14:04.209Z,101644.78
2022-11-13T19:16:50.406Z,101646.34
2022-11-13T19:19:36.444Z,101654.31
2022-11-13T19:22:22.808Z,101662.25
2022-11-13T19:25:08.751Z,101661.38
2022-11-13T19:27:54.541Z,101658.91
2022-11-13T19:30:47.582Z,101662.13
2022-11-13T19:33:34.387Z,101660.16
2022-11-13T19:36:21.080Z,101652.13
2022-11-13T19:39:13.787Z,101661.47
2022-11-13T19:41:59.607Z,101648.66
2022-11-13T19:44:45.652Z,101655.16
2022-11-13T19:47:31.049Z,101656.25
2022-11-13T19:50:17.113Z,101654.78
2022-11-13T19:53:03.461Z,101647.06
2022-11-13T19:55:55.899Z,101661.06
2022-11-13T19:58:44.521Z,101649.91
2022-11-13T20:01:32.181Z,101657.63
2022-11-13T20:04:18.082Z,101639.47
2022-11-13T20:07:04.769Z,101639.69
2022-11-13T20:09:50.728Z,101653.66
2022-11-13T20:12:36.808Z,101638.69
2022-11-13T20:15:22.683Z,101641.59
2022-11-13T20:18:08.580Z,101637.34
2022-11-13T20:20:55.167Z,101637.84
2022-11-13T20:23:41.466Z,101636.78
2022-11-13T20:26:27.925Z,101638.06
2022-11-13T20:29:14.018Z,101639.78
2022-11-13T20:32:04.062Z,101628.19
2022-11-13T20:34:50.207Z,101629.78
2022-11-13T20:37:35.903Z,101635.06
2022-11-13T20:40:22.131Z,101632.34
2022-11-13T20:43:07.881Z,101636.31
2022-11-13T20:46:11.581Z,101621.84
2022-11-13T20:48:57.444Z,101626.13
2022-11-13T20:51:44.553Z,101626.91
2022-11-13T20:54:31.775Z,101623.66
2022-11-13T20:57:21.287Z,101629.28
2022-11-13T21:00:07.845Z,101623.34
2022-11-13T21:02:54.342Z,101613.28
2022-11-13T21:05:40.234Z,101616.78
2022-11-13T21:08:26.638Z,101625.69
2022-11-13T21:11:25.531Z,101618.59
2022-11-13T21:14:11.521Z,101618.81
2022-11-13T21:16:56.940Z,101606.25
2022-11-13T21:19:43.002Z,101619.88
2022-11-13T21:22:28.659Z,101613.84
2022-11-13T21:25:15.167Z,101625.16
2022-11-13T21:28:00.892Z,101629.78
2022-11-13T21:30:46.909Z,101622.44
2022-11-13T21:33:40.873Z,101612.38
2022-11-13T21:36:29.078Z,101608.09
2022-11-13T21:39:15.198Z,101615.06
2022-11-13T21:42:00.853Z,101609.69
2022-11-13T21:44:46.267Z,101613.13
2022-11-13T21:47:32.198Z,101607.88
2022-11-13T21:50:17.747Z,101607.53
2022-11-13T21:53:03.712Z,101617.06
2022-11-13T21:55:50.538Z,101618.03
2022-11-13T21:58:39.951Z,101601.72
2022-11-13T22:01:26.315Z,101616.34
2022-11-13T22:04:12.127Z,101606.00
2022-11-13T22:06:57.960Z,101606.03
2022-11-13T22:09:43.935Z,101602.38
2022-11-13T22:12:29.899Z,101598.28
2022-11-13T22:15:15.964Z,101609.03
2022-11-13T22:18:01.851Z,101595.25
2022-11-13T22:20:49.343Z,101590.34
2022-11-13T22:23:35.454Z,101587.09
2022-11-13T22:26:23.257Z,101580.63
2022-11-13T22:29:09.274Z,101572.94
2022-11-13T22:31:55.079Z,101575.81
2022-11-13T22:34:40.799Z,101572.56
2022-11-13T22:37:26.737Z,101567.94
2022-11-13T22:40:12.902Z,101565.88
2022-11-13T22:42:58.888Z,101558.81
2022-11-13T22:45:44.717Z,101558.81
2022-11-13T22:48:31.044Z,101556.28
2022-11-13T22:51:19.123Z,101552.28
2022-11-13T22:54:07.627Z,101558.06
2022-11-13T22:56:53.374Z,101552.44
2022-11-13T22:59:39.359Z,101551.81
2022-11-13T23:02:25.396Z,101540.00
2022-11-13T23:05:11.486Z,101541.41
2022-11-13T23:07:57.292Z,101547.59
2022-11-13T23:10:43.419Z,101544.53
2022-11-13T23:13:28.882Z,101545.59
2022-11-13T23:16:15.366Z,101538.38
2022-11-13T23:19:02.252Z,101537.63
2022-11-13T23:21:49.052Z,101532.25
2022-11-13T23:24:34.763Z,101521.69
2022-11-13T23:27:20.781Z,101527.09
2022-11-13T23:30:07.321Z,101523.03
2022-11-13T23:32:53.225Z,101526.06
2022-11-13T23:35:38.868Z,101532.50
2022-11-13T23:38:25.099Z,101527.75
2022-11-13T23:41:11.591Z,101518.97
2022-11-13T23:44:12.804Z,101518.22
2022-11-13T23:46:58.545Z,101520.25
2022-11-13T23:49:44.608Z,101521.28
2022-11-13T23:52:30.321Z,101521.75
2022-11-13T23:55:17.234Z,101522.94
2022-11-13T23:58:04.567Z,101516.84
